createdAt,value
2018-08-28T00:00:26.277Z,98300.31
2018-08-28T00:02:59.411Z,98299.47
2018-08-28T00:05:32.590Z,98298.53
2018-08-28T00:08:05.769Z,98291.05
2018-08-28T00:10:39.073Z,98300.03
2018-08-28T00:13:12.226Z,98296.51
2018-08-28T00:15:45.378Z,98299.19
2018-08-28T00:18:18.552Z,98295.03
2018-08-28T00:20:51.712Z,98305.16
2018-08-28T00:23:24.865Z,98312.98
2018-08-28T00:25:58.270Z,98312.23
2018-08-28T00:28:31.362Z,98312.23
2018-08-28T00:31:04.581Z,98310.94
2018-08-28T00:33:37.713Z,98308.61
2018-08-28T00:36:10.858Z,98309.72
2018-08-28T00:38:43.984Z,98316.85
2018-08-28T00:41:17.156Z,98323.27
2018-08-28T00:43:50.276Z,98330.58
2018-08-28T00:46:23.410Z,98336.86
2018-08-28T00:48:56.533Z,98326.70
2018-08-28T00:51:29.673Z,98332.87
2018-08-28T00:54:02.753Z,98338.94
2018-08-28T00:56:35.890Z,98334.59
2018-08-28T00:59:09.063Z,98337.70
2018-08-28T01:01:42.192Z,98337.22
2018-08-28T01:04:15.378Z,98337.83
2018-08-28T01:06:49.289Z,98340.07
2018-08-28T01:09:22.447Z,98334.83
2018-08-28T01:11:55.566Z,98337.93
2018-08-28T01:14:28.733Z,98337.51
2018-08-28T01:17:01.890Z,98340.97
2018-08-28T01:19:35.049Z,98333.13
2018-08-28T01:22:08.178Z,98341.39
2018-08-28T01:24:41.347Z,98338.64
2018-08-28T01:27:14.462Z,98340.16
2018-08-28T01:29:47.581Z,98345.38
2018-08-28T01:32:20.671Z,98348.22
2018-08-28T01:34:53.818Z,98344.69
2018-08-28T01:37:26.923Z,98348.16
2018-08-28T01:40:00.061Z,98348.79
2018-08-28T01:42:33.161Z,98346.80
2018-08-28T01:45:06.637Z,98347.08
2018-08-28T01:47:39.729Z,98349.04
2018-08-28T01:50:12.855Z,98359.84
2018-08-28T01:52:45.926Z,98358.69
2018-08-28T01:55:19.099Z,98350.78
2018-08-28T01:57:52.208Z,98350.36
2018-08-28T02:00:25.323Z,98352.84
2018-08-28T02:02:58.412Z,98354.20
2018-08-28T02:05:31.576Z,98353.94
2018-08-28T02:08:05.054Z,98346.31
2018-08-28T02:10:38.192Z,98352.14
2018-08-28T02:13:11.380Z,98350.97
2018-08-28T02:15:44.473Z,98358.38
2018-08-28T02:18:17.574Z,98352.88
2018-08-28T02:20:50.674Z,98353.45
2018-08-28T02:23:23.822Z,98360.29
2018-08-28T02:25:57.046Z,98354.63
2018-08-28T02:28:30.222Z,98351.93
2018-08-28T02:31:03.345Z,98352.23
2018-08-28T02:33:36.629Z,98355.42
2018-08-28T02:36:09.690Z,98352.30
2018-08-28T02:38:42.854Z,98355.11
2018-08-28T02:41:15.979Z,98352.30
2018-08-28T02:43:49.055Z,98355.94
2018-08-28T02:46:22.174Z,98356.84
2018-08-28T02:48:55.278Z,98363.19
2018-08-28T02:51:28.456Z,98351.11
2018-08-28T02:54:01.629Z,98360.45
2018-08-28T02:56:34.727Z,98362.37
2018-08-28T02:59:07.871Z,98360.03
2018-08-28T03:01:40.997Z,98360.83
2018-08-28T03:04:14.123Z,98366.37
2018-08-28T03:06:47.237Z,98369.06
2018-08-28T03:09:20.399Z,98367.46
2018-08-28T03:11:53.506Z,98368.97
2018-08-28T03:14:26.680Z,98367.88
2018-08-28T03:16:59.838Z,98374.30
2018-08-28T03:19:32.961Z,98365.33
2018-08-28T03:22:06.166Z,98382.81
2018-08-28T03:24:39.276Z,98372.13
2018-08-28T03:27:12.391Z,98377.53
2018-08-28T03:29:45.483Z,98371.83
2018-08-28T03:32:18.584Z,98377.73
2018-08-28T03:34:51.786Z,98376.25
2018-08-28T03:37:24.920Z,98377.98
2018-08-28T03:39:58.021Z,98380.57
2018-08-28T03:42:31.130Z,98381.52
2018-08-28T03:45:04.345Z,98381.11
2018-08-28T03:47:37.479Z,98383.52
2018-08-28T03:50:10.603Z,98388.05
2018-08-28T03:52:43.718Z,98384.87
2018-08-28T03:55:16.828Z,98386.59
2018-08-28T03:57:49.960Z,98393.50
2018-08-28T04:00:23.078Z,98388.52
2018-08-28T04:02:56.250Z,98392.30
2018-08-28T04:05:29.424Z,98397.55
2018-08-28T04:08:02.816Z,98395.61
2018-08-28T04:10:35.992Z,98402.44
2018-08-28T04:13:09.123Z,98393.84
2018-08-28T04:15:42.291Z,98404.28
2018-08-28T04:18:15.366Z,98402.44
2018-08-28T04:20:48.505Z,98406.73
2018-08-28T04:23:21.638Z,98407.69
2018-08-28T04:25:54.777Z,98404.69
2018-08-28T04:28:27.893Z,98408.15
2018-08-28T04:31:01.121Z,98401.91
2018-08-28T04:33:34.162Z,98408.48
2018-08-28T04:36:07.322Z,98416.62
2018-08-28T04:38:40.426Z,98419.20
2018-08-28T04:41:13.538Z,98419.61
2018-08-28T04:43:46.631Z,98417.52
2018-08-28T04:46:19.746Z,98424.30
2018-08-28T04:48:52.926Z,98427.02
2018-08-28T04:51:26.668Z,98422.05
2018-08-28T04:53:59.798Z,98430.57
2018-08-28T04:56:32.939Z,98433.00
2018-08-28T04:59:06.065Z,98439.32
2018-08-28T05:01:39.199Z,98436.33
2018-08-28T05:04:12.326Z,98446.31
2018-08-28T05:06:45.467Z,98439.71
2018-08-28T05:09:18.584Z,98429.73
2018-08-28T05:11:51.796Z,98444.73
2018-08-28T05:14:25.057Z,98446.02
2018-08-28T05:16:58.646Z,98450.35
2018-08-28T05:19:31.746Z,98448.64
2018-08-28T05:22:04.894Z,98450.14
2018-08-28T05:24:37.998Z,98447.64
2018-08-28T05:27:11.138Z,98445.23
2018-08-28T05:29:44.286Z,98447.59
2018-08-28T05:32:17.382Z,98450.84
2018-08-28T05:34:50.550Z,98449.47
2018-08-28T05:37:23.670Z,98446.77
2018-08-28T05:39:56.792Z,98452.47
2018-08-28T05:42:29.909Z,98450.55
2018-08-28T05:45:03.050Z,98451.75
2018-08-28T05:47:36.434Z,98445.99
2018-08-28T05:50:09.615Z,98450.28
2018-08-28T05:52:42.725Z,98445.36
2018-08-28T05:55:15.853Z,98441.36
2018-08-28T05:57:48.994Z,98441.69
2018-08-28T06:00:22.174Z,98442.23
2018-08-28T06:02:55.375Z,98437.25
2018-08-28T06:05:28.478Z,98444.51
2018-08-28T06:08:01.670Z,98444.19
2018-08-28T06:10:34.875Z,98441.64
2018-08-28T06:13:08.085Z,98443.52
2018-08-28T06:15:41.215Z,98441.50
2018-08-28T06:18:14.378Z,98440.86
2018-08-28T06:20:47.499Z,98441.66
2018-08-28T06:23:20.666Z,98443.77
2018-08-28T06:25:53.785Z,98444.13
2018-08-28T06:28:27.220Z,98444.87
2018-08-28T06:31:00.338Z,98443.30
2018-08-28T06:33:33.478Z,98438.73
2018-08-28T06:36:06.711Z,98439.12
2018-08-28T06:38:39.812Z,98437.36
2018-08-28T06:41:12.956Z,98438.63
2018-08-28T06:43:46.105Z,98435.88
2018-08-28T06:46:19.233Z,98440.14
2018-08-28T06:48:52.308Z,98438.34
2018-08-28T06:51:25.468Z,98435.48
2018-08-28T06:53:58.621Z,98441.34
2018-08-28T06:56:31.764Z,98439.74
2018-08-28T06:59:04.918Z,98439.35
2018-08-28T07:01:38.050Z,98433.61
2018-08-28T07:04:11.187Z,98431.75
2018-08-28T07:06:44.354Z,98424.83
2018-08-28T07:09:17.465Z,98426.52
2018-08-28T07:11:50.594Z,98429.48
2018-08-28T07:14:23.710Z,98434.31
2018-08-28T07:16:56.844Z,98434.70
2018-08-28T07:19:29.999Z,98431.95
2018-08-28T07:22:03.156Z,98425.41
2018-08-28T07:24:36.321Z,98426.61
2018-08-28T07:27:09.450Z,98421.52
2018-08-28T07:29:42.604Z,98422.49
2018-08-28T07:32:15.753Z,98424.73
2018-08-28T07:34:48.870Z,98424.75
2018-08-28T07:37:22.098Z,98419.48
2018-08-28T07:39:55.525Z,98421.73
2018-08-28T07:42:28.633Z,98419.47
2018-08-28T07:45:01.847Z,98418.55
2018-08-28T07:47:34.965Z,98419.88
2018-08-28T07:50:08.142Z,98420.28
2018-08-28T07:52:41.293Z,98423.64
2018-08-28T07:55:14.459Z,98424.87
2018-08-28T07:57:47.568Z,98426.70
2018-08-28T08:00:20.718Z,98427.36
2018-08-28T08:02:53.866Z,98423.64
2018-08-28T08:05:27.047Z,98424.41
2018-08-28T08:08:00.138Z,98427.54
2018-08-28T08:10:33.351Z,98425.85
2018-08-28T08:13:06.427Z,98430.61
2018-08-28T08:15:39.603Z,98426.27
2018-08-28T08:18:12.740Z,98425.85
2018-08-28T08:20:45.895Z,98428.30
2018-08-28T08:23:19.047Z,98430.55
2018-08-28T08:25:52.310Z,98424.98
2018-08-28T08:28:25.504Z,98433.22
2018-08-28T08:30:58.652Z,98431.48
2018-08-28T08:33:31.818Z,98423.24
2018-08-28T08:36:05.010Z,98423.31
2018-08-28T08:38:38.186Z,98416.81
2018-08-28T08:41:11.338Z,98424.62
2018-08-28T08:43:44.548Z,98410.22
2018-08-28T08:46:17.713Z,98419.88
2018-08-28T08:48:50.911Z,98418.59
2018-08-28T08:51:24.082Z,98412.02
2018-08-28T08:53:57.226Z,98416.78
2018-08-28T08:56:30.391Z,98411.12
2018-08-28T08:59:03.533Z,98404.16
2018-08-28T09:01:36.717Z,98414.95
2018-08-28T09:04:09.849Z,98404.95
2018-08-28T09:06:43.035Z,98410.16
2018-08-28T09:09:16.191Z,98410.21
2018-08-28T09:11:49.332Z,98405.88
2018-08-28T09:14:22.494Z,98410.71
2018-08-28T09:16:55.723Z,98401.98
2018-08-28T09:19:28.973Z,98404.59
2018-08-28T09:22:02.092Z,98405.02
2018-08-28T09:24:35.277Z,98400.92
2018-08-28T09:27:08.453Z,98403.09
2018-08-28T09:29:41.609Z,98402.66
2018-08-28T09:32:14.821Z,98393.99
2018-08-28T09:34:47.899Z,98393.16
2018-08-28T09:37:21.154Z,98400.64
2018-08-28T09:39:54.267Z,98395.42
2018-08-28T09:42:27.449Z,98396.30
2018-08-28T09:45:00.623Z,98394.03
2018-08-28T09:47:33.796Z,98388.39
2018-08-28T09:50:07.051Z,98391.03
2018-08-28T09:52:40.215Z,98388.00
2018-08-28T09:55:13.439Z,98387.13
2018-08-28T09:57:46.594Z,98384.56
2018-08-28T10:00:25.425Z,98375.77
2018-08-28T10:02:58.877Z,98373.59
2018-08-28T10:05:32.057Z,98372.71
2018-08-28T10:08:05.274Z,98374.92
2018-08-28T10:10:38.455Z,98374.01
2018-08-28T10:13:11.553Z,98365.62
2018-08-28T10:15:44.822Z,98361.31
2018-08-28T10:18:17.978Z,98362.22
2018-08-28T10:20:51.108Z,98365.77
2018-08-28T10:23:24.249Z,98353.55
2018-08-28T10:25:57.631Z,98345.25
2018-08-28T10:28:30.805Z,98349.61
2018-08-28T10:31:04.019Z,98348.73
2018-08-28T10:33:37.207Z,98343.50
2018-08-28T10:36:10.377Z,98334.75
2018-08-28T10:38:43.586Z,98334.31
2018-08-28T10:41:16.782Z,98330.39
2018-08-28T10:43:49.917Z,98340.44
2018-08-28T10:46:23.121Z,98336.52
2018-08-28T10:48:56.267Z,98339.98
2018-08-28T10:51:29.505Z,98333.84
2018-08-28T10:54:02.662Z,98335.62
2018-08-28T10:56:35.846Z,98334.75
2018-08-28T10:59:08.987Z,98333.86
2018-08-28T11:01:42.152Z,98325.14
2018-08-28T11:04:15.434Z,98326.43
2018-08-28T11:06:48.578Z,98326.00
2018-08-28T11:09:21.745Z,98321.63
2018-08-28T11:11:55.006Z,98316.36
2018-08-28T11:14:28.222Z,98315.05
2018-08-28T11:17:01.425Z,98312.88
2018-08-28T11:19:34.613Z,98315.48
2018-08-28T11:22:08.038Z,98310.22
2018-08-28T11:24:41.202Z,98307.16
2018-08-28T11:27:14.385Z,98304.97
2018-08-28T11:29:47.581Z,98302.77
2018-08-28T11:32:20.675Z,98301.49
2018-08-28T11:34:53.853Z,98302.34
2018-08-28T11:37:26.957Z,98300.63
2018-08-28T11:40:00.134Z,98300.64
2018-08-28T11:42:33.278Z,98299.30
2018-08-28T11:45:07.156Z,98301.49
2018-08-28T11:47:40.317Z,98297.99
2018-08-28T11:50:13.483Z,98293.63
2018-08-28T11:52:46.702Z,98294.95
2018-08-28T11:55:19.878Z,98288.36
2018-08-28T11:57:53.157Z,98284.88
2018-08-28T12:00:26.348Z,98281.86
2018-08-28T12:02:59.498Z,98278.77
2018-08-28T12:05:32.727Z,98283.56
2018-08-28T12:08:05.850Z,98284.45
2018-08-28T12:10:39.047Z,98279.20
2018-08-28T12:13:12.186Z,98272.65
2018-08-28T12:15:45.360Z,98269.59
2018-08-28T12:18:18.470Z,98259.12
2018-08-28T12:20:51.650Z,98256.06
2018-08-28T12:23:24.961Z,98256.92
2018-08-28T12:25:58.263Z,98256.48
2018-08-28T12:28:31.475Z,98244.25
2018-08-28T12:31:04.704Z,98238.13
2018-08-28T12:33:37.863Z,98243.36
2018-08-28T12:36:11.034Z,98243.80
2018-08-28T12:38:44.193Z,98241.16
2018-08-28T12:41:17.369Z,98235.02
2018-08-28T12:43:50.597Z,98231.11
2018-08-28T12:46:23.946Z,98221.50
2018-08-28T12:48:57.180Z,98232.02
2018-08-28T12:51:30.430Z,98228.52
2018-08-28T12:54:03.486Z,98218.85
2018-08-28T12:56:36.910Z,98224.98
2018-08-28T12:59:10.159Z,98218.02
2018-08-28T13:01:43.390Z,98222.38
2018-08-28T13:04:16.555Z,98220.16
2018-08-28T13:06:49.749Z,98221.92
2018-08-28T13:09:23.026Z,98221.44
2018-08-28T13:11:56.165Z,98218.83
2018-08-28T13:14:29.648Z,98209.22
2018-08-28T13:17:02.817Z,98207.49
2018-08-28T13:19:35.943Z,98215.40
2018-08-28T13:22:09.127Z,98207.52
2018-08-28T13:24:42.259Z,98205.34
2018-08-28T13:27:15.442Z,98203.11
2018-08-28T13:29:48.649Z,98201.83
2018-08-28T13:32:21.780Z,98197.45
2018-08-28T13:34:55.030Z,98203.99
2018-08-28T13:37:28.258Z,98197.42
2018-08-28T13:40:01.485Z,98192.20
2018-08-28T13:42:34.654Z,98193.48
2018-08-28T13:45:07.977Z,98200.03
2018-08-28T13:47:41.139Z,98196.55
2018-08-28T13:50:14.356Z,98197.91
2018-08-28T13:52:47.575Z,98198.34
2018-08-28T13:55:20.779Z,98194.81
2018-08-28T13:57:53.947Z,98196.13
2018-08-28T14:00:27.185Z,98186.96
2018-08-28T14:03:00.353Z,98190.44
2018-08-28T14:05:33.607Z,98193.48
2018-08-28T14:08:06.805Z,98185.63
2018-08-28T14:10:40.021Z,98183.02
2018-08-28T14:13:13.283Z,98182.10
2018-08-28T14:15:46.400Z,98181.22
2018-08-28T14:18:19.661Z,98176.45
2018-08-28T14:20:53.625Z,98179.92
2018-08-28T14:23:26.865Z,98176.43
2018-08-28T14:26:00.349Z,98176.03
2018-08-28T14:28:33.495Z,98173.41
2018-08-28T14:31:06.785Z,98172.52
2018-08-28T14:33:39.929Z,98175.13
2018-08-28T14:36:13.132Z,98173.83
2018-08-28T14:38:46.357Z,98165.54
2018-08-28T14:41:19.537Z,98156.78
2018-08-28T14:43:52.678Z,98160.76
2018-08-28T14:46:25.920Z,98159.03
2018-08-28T14:48:59.065Z,98155.91
2018-08-28T14:51:32.317Z,98152.88
2018-08-28T14:54:12.326Z,98149.44
2018-08-28T14:56:45.574Z,98145.08
2018-08-28T14:59:18.684Z,98144.16
2018-08-28T15:01:51.913Z,98144.98
2018-08-28T15:04:25.093Z,98145.91
2018-08-28T15:06:58.432Z,98138.47
2018-08-28T15:09:31.470Z,98135.42
2018-08-28T15:12:04.826Z,98143.77
2018-08-28T15:14:38.068Z,98141.13
2018-08-28T15:17:11.325Z,98134.13
2018-08-28T15:19:44.495Z,98133.69
2018-08-28T15:22:17.734Z,98130.66
2018-08-28T15:24:50.884Z,98131.48
2018-08-28T15:27:24.112Z,98124.97
2018-08-28T15:29:57.276Z,98129.34
2018-08-28T15:32:30.491Z,98133.25
2018-08-28T15:35:03.693Z,98128.43
2018-08-28T15:37:36.865Z,98123.22
2018-08-28T15:40:10.038Z,98121.02
2018-08-28T15:42:43.262Z,98124.08
2018-08-28T15:45:16.435Z,98118.37
2018-08-28T15:47:49.622Z,98112.72
2018-08-28T15:50:22.891Z,98107.92
2018-08-28T15:52:56.113Z,98111.39
2018-08-28T15:55:29.259Z,98110.51
2018-08-28T15:58:02.657Z,98110.54
2018-08-28T16:00:35.818Z,98111.88
2018-08-28T16:03:09.105Z,98111.42
2018-08-28T16:05:42.286Z,98111.45
2018-08-28T16:08:15.494Z,98112.33
2018-08-28T16:10:48.705Z,98110.59
2018-08-28T16:13:21.863Z,98117.09
2018-08-28T16:15:55.055Z,98106.17
2018-08-28T16:18:28.208Z,98109.27
2018-08-28T16:21:01.366Z,98110.58
2018-08-28T16:23:36.974Z,98104.89
2018-08-28T16:26:10.146Z,98114.09
2018-08-28T16:28:43.316Z,98105.77
2018-08-28T16:31:16.458Z,98108.39
2018-08-28T16:33:49.812Z,98101.41
2018-08-28T16:36:22.981Z,98095.74
2018-08-28T16:38:56.115Z,98100.53
2018-08-28T16:41:29.323Z,98104.47
2018-08-28T16:44:02.519Z,98094.45
2018-08-28T16:46:36.249Z,98089.62
2018-08-28T16:49:09.424Z,98092.66
2018-08-28T16:51:42.711Z,98086.98
2018-08-28T16:54:15.841Z,98083.91
2018-08-28T16:56:49.024Z,98070.39
2018-08-28T16:59:22.258Z,98074.77
2018-08-28T17:01:55.561Z,98071.28
2018-08-28T17:04:28.879Z,98064.72
2018-08-28T17:07:02.037Z,98065.16
2018-08-28T17:09:35.484Z,98062.52
2018-08-28T17:12:08.805Z,98065.57
2018-08-28T17:14:42.112Z,98059.47
2018-08-28T17:17:15.231Z,98059.00
2018-08-28T17:19:48.458Z,98057.69
2018-08-28T17:22:21.618Z,98055.48
2018-08-28T17:24:54.794Z,98061.14
2018-08-28T17:27:28.007Z,98065.03
2018-08-28T17:30:01.269Z,98057.16
2018-08-28T17:32:34.411Z,98060.17
2018-08-28T17:35:07.871Z,98067.11
2018-08-28T17:37:41.074Z,98072.77
2018-08-28T17:40:14.316Z,98071.41
2018-08-28T17:42:47.523Z,98071.80
2018-08-28T17:45:20.758Z,98084.83
2018-08-28T17:47:53.980Z,98083.00
2018-08-28T17:50:27.274Z,98087.28
2018-08-28T17:53:00.552Z,98090.73
2018-08-28T17:55:33.771Z,98089.37
2018-08-28T17:58:06.976Z,98094.52
2018-08-28T18:00:40.177Z,98098.77
2018-08-28T18:03:13.366Z,98104.33
2018-08-28T18:05:46.600Z,98105.07
2018-08-28T18:08:19.772Z,98114.12
2018-08-28T18:10:53.026Z,98111.86
2018-08-28T18:13:26.323Z,98109.11
2018-08-28T18:15:59.648Z,98107.16
2018-08-28T18:18:32.874Z,98114.02
2018-08-28T18:21:06.123Z,98122.17
2018-08-28T18:23:39.301Z,98120.30
2018-08-28T18:26:12.571Z,98126.73
2018-08-28T18:28:46.081Z,98127.09
2018-08-28T18:31:19.384Z,98126.05
2018-08-28T18:33:52.533Z,98122.84
2018-08-28T18:36:25.745Z,98124.50
2018-08-28T18:38:58.950Z,98122.55
2018-08-28T18:41:32.231Z,98116.00
2018-08-28T18:44:05.540Z,98122.81
2018-08-28T18:46:38.736Z,98121.34
2018-08-28T18:49:11.998Z,98125.08
2018-08-28T18:51:45.163Z,98126.34
2018-08-28T18:54:18.570Z,98127.16
2018-08-28T18:56:51.793Z,98125.37
2018-08-28T18:59:25.027Z,98124.26
2018-08-28T19:01:58.353Z,98125.80
2018-08-28T19:04:31.609Z,98128.27
2018-08-28T19:07:04.862Z,98120.30
2018-08-28T19:09:38.092Z,98133.25
2018-08-28T19:12:11.325Z,98133.27
2018-08-28T19:14:44.592Z,98131.05
2018-08-28T19:17:17.805Z,98131.00
2018-08-28T19:19:51.024Z,98132.73
2018-08-28T19:22:24.204Z,98143.81
2018-08-28T19:24:57.487Z,98136.34
2018-08-28T19:27:30.774Z,98138.39
2018-08-28T19:30:04.092Z,98141.63
2018-08-28T19:32:37.338Z,98142.42
2018-08-28T19:35:10.683Z,98136.99
2018-08-28T19:37:44.015Z,98134.28
2018-08-28T19:40:17.246Z,98133.39
2018-08-28T19:42:50.450Z,98132.41
2018-08-28T19:45:23.710Z,98126.98
2018-08-28T19:47:56.883Z,98131.22
2018-08-28T19:50:30.121Z,98131.82
2018-08-28T19:53:03.415Z,98130.30
2018-08-28T19:55:36.804Z,98121.61
2018-08-28T19:58:10.038Z,98125.93
2018-08-28T20:00:43.315Z,98118.73
2018-08-28T20:03:16.572Z,98118.36
2018-08-28T20:05:49.865Z,98119.45
2018-08-28T20:08:23.059Z,98117.96
2018-08-28T20:10:56.317Z,98113.36
2018-08-28T20:13:29.594Z,98109.69
2018-08-28T20:16:03.494Z,98110.06
2018-08-28T20:18:36.738Z,98101.14
2018-08-28T20:21:10.001Z,98106.53
2018-08-28T20:23:43.372Z,98107.98
2018-08-28T20:26:16.578Z,98105.25
2018-08-28T20:28:49.796Z,98108.34
2018-08-28T20:31:22.952Z,98105.84
2018-08-28T20:33:56.160Z,98107.55
2018-08-28T20:36:29.357Z,98108.33
2018-08-28T20:39:02.835Z,98104.65
2018-08-28T20:41:36.377Z,98102.70
2018-08-28T20:44:09.582Z,98103.13
2018-08-28T20:46:42.826Z,98094.04
2018-08-28T20:49:16.049Z,98096.63
2018-08-28T20:51:49.236Z,98092.74
2018-08-28T20:54:22.447Z,98093.13
2018-08-28T20:56:55.637Z,98088.25
2018-08-28T20:59:28.855Z,98086.37
2018-08-28T21:02:02.229Z,98081.24
2018-08-28T21:04:35.443Z,98086.19
2018-08-28T21:07:08.655Z,98087.00
2018-08-28T21:09:41.851Z,98089.77
2018-08-28T21:12:14.984Z,98085.59
2018-08-28T21:14:48.208Z,98086.67
2018-08-28T21:17:21.387Z,98090.98
2018-08-28T21:19:54.689Z,98090.50
2018-08-28T21:22:27.891Z,98089.46
2018-08-28T21:25:01.059Z,98083.75
2018-08-28T21:27:34.210Z,98085.33
2018-08-28T21:30:07.447Z,98083.55
2018-08-28T21:32:40.651Z,98076.42
2018-08-28T21:35:13.831Z,98076.27
2018-08-28T21:37:47.063Z,98072.11
2018-08-28T21:40:20.201Z,98074.70
2018-08-28T21:42:53.374Z,98067.03
2018-08-28T21:45:26.520Z,98068.51
2018-08-28T21:47:59.712Z,98065.77
2018-08-28T21:50:32.837Z,98068.23
2018-08-28T21:53:06.082Z,98072.20
2018-08-28T21:55:39.214Z,98067.58
2018-08-28T21:58:12.388Z,98064.45
2018-08-28T22:00:50.088Z,98064.83
2018-08-28T22:03:23.298Z,98062.48
2018-08-28T22:05:56.606Z,98062.36
2018-08-28T22:08:29.718Z,98055.20
2018-08-28T22:11:02.846Z,98052.36
2018-08-28T22:13:35.999Z,98050.55
2018-08-28T22:16:09.169Z,98046.03
2018-08-28T22:18:42.393Z,98049.84
2018-08-28T22:21:15.494Z,98050.69
2018-08-28T22:23:48.667Z,98042.67
2018-08-28T22:26:21.861Z,98049.33
2018-08-28T22:28:54.998Z,98040.80
2018-08-28T22:31:28.112Z,98045.19
2018-08-28T22:34:01.260Z,98043.31
2018-08-28T22:36:34.432Z,98039.73
2018-08-28T22:39:07.658Z,98044.31
2018-08-28T22:41:40.741Z,98037.85
2018-08-28T22:44:13.910Z,98036.23
2018-08-28T22:46:47.029Z,98036.11
2018-08-28T22:49:20.196Z,98033.33
2018-08-28T22:51:53.359Z,98033.33
2018-08-28T22:54:26.560Z,98019.92
2018-08-28T22:56:59.648Z,98027.02
2018-08-28T22:59:32.837Z,98020.59
2018-08-28T23:02:06.125Z,98033.51
2018-08-28T23:04:39.281Z,98024.53
2018-08-28T23:07:12.433Z,98024.33
2018-08-28T23:09:45.565Z,98025.94
2018-08-28T23:12:18.743Z,98023.55
2018-08-28T23:14:51.841Z,98019.67
2018-08-28T23:17:25.013Z,98013.78
2018-08-28T23:19:58.114Z,98013.64
2018-08-28T23:22:31.205Z,98018.11
2018-08-28T23:25:04.389Z,98010.33
2018-08-28T23:27:37.503Z,98003.39
2018-08-28T23:30:10.678Z,98005.09
2018-08-28T23:32:43.833Z,97998.85
2018-08-28T23:35:16.985Z,97997.49
2018-08-28T23:37:50.136Z,97997.14
2018-08-28T23:40:23.270Z,97997.73
2018-08-28T23:42:56.408Z,97989.78
2018-08-28T23:45:29.570Z,97981.37
2018-08-28T23:48:02.727Z,97979.59
2018-08-28T23:50:35.816Z,97981.93
2018-08-28T23:53:09.025Z,97996.52
2018-08-28T23:55:42.146Z,97996.16
2018-08-28T23:58:15.283Z,97991.84
